Time;durP1;ratioP1;P1;durP2;ratioP2;P2;SDS_P1;SDS_P2;PMS_P1;PMS_P2;Temp;Humidity;BMP_temperature;BMP_pressure;BME280_temperature;BME280_humidity;BME280_pressure;Samples;Min_cycle;Max_cycle;Signal;HPM_P1;HPM_P2
2023/04/09 00:01:24;;;;;;;40.73;27.13;;;;;;;;;;5015277;28;20435;-86
2023/04/09 00:03:53;;;;;;;37.90;28.13;;;;;;;;;;5016347;28;20492;-85
2023/04/09 00:06:19;;;;;;;38.37;26.80;;;;;;;;;;4997738;28;20456;-85
2023/04/09 00:08:45;;;;;;;41.30;27.23;;;;;;;;;;5010927;28;20436;-85
2023/04/09 00:11:11;;;;;;;42.03;28.50;;;;;;;;;;4996234;28;20444;-86
2023/04/09 00:13:37;;;;;;;37.13;26.77;;;;;;;;;;5014478;28;20420;-84
2023/04/09 00:16:03;;;;;;;43.57;29.47;;;;;;;;;;4995239;28;20476;-86
2023/04/09 00:18:29;;;;;;;41.03;29.00;;;;;;;;;;5014783;28;20436;-86
2023/04/09 00:20:55;;;;;;;44.33;29.37;;;;;;;;;;4995173;28;20417;-85
2023/04/09 00:23:21;;;;;;;44.40;28.50;;;;;;;;;;5003919;28;20561;-85
2023/04/09 00:25:47;;;;;;;46.90;28.57;;;;;;;;;;4995014;28;20414;-87
2023/04/09 00:28:13;;;;;;;44.70;29.17;;;;;;;;;;4987476;28;20441;-85
2023/04/09 00:30:39;;;;;;;39.47;27.33;;;;;;;;;;4995785;28;20433;-86
2023/04/09 00:33:06;;;;;;;43.57;29.37;;;;;;;;;;5013608;28;20463;-85
2023/04/09 00:35:32;;;;;;;45.90;28.90;;;;;;;;;;5006969;28;20417;-84
2023/04/09 00:37:57;;;;;;;47.10;29.60;;;;;;;;;;5013202;28;20439;-86
2023/04/09 00:40:24;;;;;;;48.73;29.67;;;;;;;;;;5013674;28;20451;-85
2023/04/09 00:42:50;;;;;;;58.77;39.27;;;;;;;;;;4991972;28;20467;-84
2023/04/09 00:45:16;;;;;;;61.17;30.97;;;;;;;;;;4990625;28;20437;-85
2023/04/09 00:47:44;;;;;;;46.23;29.87;;;;;;;;;;4992626;28;20441;-85
2023/04/09 00:50:10;;;;;;;45.83;28.43;;;;;;;;;;4994521;28;20440;-84
2023/04/09 00:52:37;;;;;;;48.60;30.10;;;;;;;;;;4975663;28;20479;-84
2023/04/09 00:55:05;;;;;;;46.23;31.70;;;;;;;;;;4982224;28;20429;-86
2023/04/09 00:57:31;;;;;;;48.03;31.70;;;;;;;;;;4993416;28;20433;-85
2023/04/09 00:59:57;;;;;;;53.03;30.70;;;;;;;;;;4982689;28;20441;-85
2023/04/09 01:02:23;;;;;;;51.60;33.17;;;;;;;;;;4980411;28;20472;-85
2023/04/09 01:04:50;;;;;;;47.90;29.30;;;;;;;;;;4996942;28;20451;-85
2023/04/09 01:07:37;;;;;;;53.13;30.87;;;;;;;;;;4987704;28;20456;-85
2023/04/09 01:10:21;;;;;;;53.03;33.07;;;;;;;;;;4991338;28;20442;-85
2023/04/09 01:12:53;;;;;;;48.70;32.00;;;;;;;;;;5007191;28;20455;-85
2023/04/09 01:15:25;;;;;;;47.50;30.83;;;;;;;;;;5001001;28;20547;-84
2023/04/09 01:17:59;;;;;;;45.97;30.43;;;;;;;;;;4998145;28;20439;-85
2023/04/09 01:20:45;;;;;;;51.10;30.83;;;;;;;;;;5003352;28;20752;-85
2023/04/09 01:23:30;;;;;;;50.80;28.40;;;;;;;;;;4978456;28;20472;-85
2023/04/09 01:25:55;;;;;;;53.40;32.73;;;;;;;;;;4992828;28;20535;-86
2023/04/09 01:28:44;;;;;;;54.73;33.87;;;;;;;;;;4978556;28;20453;-84
2023/04/09 01:31:12;;;;;;;48.60;31.73;;;;;;;;;;5009338;28;20441;-84
2023/04/09 01:33:39;;;;;;;50.80;32.77;;;;;;;;;;4985034;28;20441;-85
2023/04/09 01:36:06;;;;;;;51.23;34.07;;;;;;;;;;4972887;28;20834;-85
2023/04/09 01:38:32;;;;;;;51.30;30.70;;;;;;;;;;4986480;28;20437;-85
2023/04/09 01:40:59;;;;;;;44.37;29.53;;;;;;;;;;4998840;28;20445;-85
2023/04/09 01:43:25;;;;;;;55.80;31.50;;;;;;;;;;4992383;28;20476;-84
2023/04/09 01:45:52;;;;;;;45.50;30.03;;;;;;;;;;4989034;28;20440;-85
2023/04/09 01:48:19;;;;;;;45.83;30.27;;;;;;;;;;4990264;28;20439;-84
2023/04/09 01:50:45;;;;;;;51.67;32.20;;;;;;;;;;4993730;28;20444;-84
2023/04/09 01:53:11;;;;;;;58.80;33.67;;;;;;;;;;4993138;28;20535;-85
2023/04/09 01:55:37;;;;;;;58.60;34.90;;;;;;;;;;4962313;28;20474;-85
2023/04/09 01:58:03;;;;;;;58.13;33.67;;;;;;;;;;4979125;28;20466;-85
2023/04/09 02:00:35;;;;;;;53.67;33.17;;;;;;;;;;4993430;28;20427;-84
2023/04/09 02:03:06;;;;;;;57.27;32.20;;;;;;;;;;4985005;28;20876;-87
2023/04/09 02:05:35;;;;;;;61.60;33.77;;;;;;;;;;4965532;28;20507;-86
2023/04/09 02:08:05;;;;;;;49.97;32.92;;;;;;;;;;4969878;28;20468;-84
2023/04/09 02:10:34;;;;;;;62.70;34.60;;;;;;;;;;4995086;28;20185;-85
2023/04/09 02:13:01;;;;;;;54.10;33.23;;;;;;;;;;4960714;28;20437;-85
2023/04/09 02:15:28;;;;;;;48.83;29.47;;;;;;;;;;5001952;28;20430;-86
2023/04/09 02:17:54;;;;;;;56.67;34.47;;;;;;;;;;4987090;28;20443;-84
2023/04/09 02:20:20;;;;;;;45.20;30.60;;;;;;;;;;5015819;28;20423;-86
2023/04/09 02:22:47;;;;;;;57.43;35.27;;;;;;;;;;5003684;28;20524;-86
2023/04/09 02:25:13;;;;;;;54.57;31.80;;;;;;;;;;4996545;28;20431;-85
2023/04/09 02:27:39;;;;;;;59.88;32.53;;;;;;;;;;5015361;28;20428;-85
2023/04/09 02:30:05;;;;;;;53.83;34.87;;;;;;;;;;5006813;28;20211;-87
2023/04/09 02:32:31;;;;;;;60.97;34.40;;;;;;;;;;5016037;28;20444;-85
2023/04/09 02:34:57;;;;;;;51.10;31.90;;;;;;;;;;5019814;28;20437;-85
2023/04/09 02:37:23;;;;;;;55.23;34.00;;;;;;;;;;5000486;28;20438;-85
2023/04/09 02:39:50;;;;;;;54.80;31.27;;;;;;;;;;5019255;28;20434;-84
2023/04/09 02:42:16;;;;;;;59.37;35.13;;;;;;;;;;5000834;28;20457;-86
2023/04/09 02:44:43;;;;;;;59.00;33.40;;;;;;;;;;5019070;28;20420;-84
2023/04/09 02:47:09;;;;;;;54.23;33.33;;;;;;;;;;4999521;28;20440;-85
2023/04/09 02:49:35;;;;;;;54.87;35.13;;;;;;;;;;5019315;28;20432;-84
2023/04/09 02:52:01;;;;;;;45.70;30.17;;;;;;;;;;5007192;28;20455;-84
2023/04/09 02:54:27;;;;;;;56.63;35.07;;;;;;;;;;4999311;28;20690;-85
2023/04/09 02:56:53;;;;;;;57.30;30.77;;;;;;;;;;5017473;28;20416;-84
2023/04/09 02:59:19;;;;;;;52.03;34.03;;;;;;;;;;4999314;28;20433;-86
2023/04/09 03:01:45;;;;;;;61.37;34.37;;;;;;;;;;5007539;28;20634;-85
2023/04/09 03:04:11;;;;;;;58.27;33.80;;;;;;;;;;4996151;28;20402;-85
2023/04/09 03:06:37;;;;;;;55.30;33.20;;;;;;;;;;5013101;28;20448;-84
2023/04/09 03:09:03;;;;;;;64.27;36.17;;;;;;;;;;4997794;28;20524;-84
2023/04/09 03:11:29;;;;;;;72.73;38.67;;;;;;;;;;4990516;28;20443;-85
2023/04/09 03:13:55;;;;;;;60.60;34.50;;;;;;;;;;4998125;28;20404;-85
2023/04/09 03:16:24;;;;;;;66.23;35.67;;;;;;;;;;5013611;28;20513;-86
2023/04/09 03:18:50;;;;;;;58.78;33.35;;;;;;;;;;5018672;28;20428;-85
2023/04/09 03:21:16;;;;;;;52.73;31.20;;;;;;;;;;5032816;28;20201;-83
2023/04/09 03:23:42;;;;;;;68.47;34.33;;;;;;;;;;5007280;28;20449;-83
2023/04/09 03:26:08;;;;;;;58.47;34.87;;;;;;;;;;4998192;28;20418;-84
2023/04/09 03:28:34;;;;;;;64.00;36.90;;;;;;;;;;5018094;28;20431;-84
2023/04/09 03:31:00;;;;;;;61.60;35.23;;;;;;;;;;4998774;28;20627;-85
2023/04/09 03:33:26;;;;;;;63.50;35.63;;;;;;;;;;5018416;28;20416;-86
2023/04/09 03:35:52;;;;;;;65.37;36.63;;;;;;;;;;5000035;28;20425;-86
2023/04/09 03:38:19;;;;;;;77.00;37.97;;;;;;;;;;4998298;28;20455;-84
2023/04/09 03:40:45;;;;;;;74.83;40.77;;;;;;;;;;5017100;28;20494;-84
2023/04/09 03:43:14;;;;;;;67.90;39.30;;;;;;;;;;5014848;28;20869;-85
2023/04/09 03:45:40;;;;;;;61.00;35.75;;;;;;;;;;5002194;28;20236;-82
2023/04/09 03:48:06;;;;;;;63.80;37.70;;;;;;;;;;5016021;28;20188;-85
2023/04/09 03:50:37;;;;;;;65.40;36.80;;;;;;;;;;4996208;28;20170;-84
2023/04/09 03:53:03;;;;;;;64.37;39.50;;;;;;;;;;4993463;28;20444;-84
2023/04/09 03:55:29;;;;;;;66.90;36.03;;;;;;;;;;5021436;28;20431;-85
2023/04/09 03:57:55;;;;;;;61.43;38.20;;;;;;;;;;4993288;28;20452;-85
2023/04/09 04:00:21;;;;;;;71.90;39.00;;;;;;;;;;5004113;28;20435;-85
2023/04/09 04:02:47;;;;;;;62.03;37.43;;;;;;;;;;5005002;28;20460;-86
2023/04/09 04:05:13;;;;;;;67.97;36.30;;;;;;;;;;5015922;28;20475;-86
2023/04/09 04:07:42;;;;;;;61.10;37.83;;;;;;;;;;5008019;28;20458;-86
2023/04/09 04:10:09;;;;;;;65.70;39.53;;;;;;;;;;4992571;28;20458;-86
2023/04/09 04:12:35;;;;;;;62.00;38.00;;;;;;;;;;5004394;28;20240;-84
2023/04/09 04:15:01;;;;;;;66.73;35.97;;;;;;;;;;5000191;28;20432;-85
2023/04/09 04:17:27;;;;;;;61.60;33.77;;;;;;;;;;4984923;28;20429;-86
2023/04/09 04:19:53;;;;;;;71.30;38.80;;;;;;;;;;4999495;28;20453;-85
2023/04/09 04:22:19;;;;;;;65.00;37.83;;;;;;;;;;4985716;28;20477;-85
2023/04/09 04:24:45;;;;;;;63.07;38.67;;;;;;;;;;4982473;28;21048;-85
2023/04/09 04:27:11;;;;;;;70.93;39.60;;;;;;;;;;4971520;28;20873;-86
2023/04/09 04:29:38;;;;;;;67.55;39.90;;;;;;;;;;4994237;28;20449;-84
2023/04/09 04:32:04;;;;;;;65.03;35.83;;;;;;;;;;5003238;28;20194;-84
2023/04/09 04:34:30;;;;;;;67.73;39.50;;;;;;;;;;4993983;28;20433;-85
2023/04/09 04:36:56;;;;;;;67.80;39.67;;;;;;;;;;4998421;28;20483;-85
2023/04/09 04:39:22;;;;;;;76.40;41.83;;;;;;;;;;4996907;28;20452;-86
2023/04/09 04:41:48;;;;;;;63.60;39.27;;;;;;;;;;4993614;28;20438;-85
2023/04/09 04:44:15;;;;;;;54.50;37.17;;;;;;;;;;5012493;28;20425;-84
2023/04/09 04:46:40;;;;;;;71.00;41.15;;;;;;;;;;5002184;28;20435;-83
2023/04/09 04:49:07;;;;;;;68.37;40.07;;;;;;;;;;4999127;28;20181;-83
2023/04/09 04:51:33;;;;;;;57.30;34.77;;;;;;;;;;5018836;28;20439;-83
2023/04/09 04:54:02;;;;;;;59.63;37.97;;;;;;;;;;4993208;28;20421;-84
2023/04/09 04:56:28;;;;;;;64.43;40.27;;;;;;;;;;5011660;28;20444;-84
2023/04/09 04:58:56;;;;;;;57.60;37.67;;;;;;;;;;5011899;28;20439;-85
2023/04/09 05:01:22;;;;;;;57.80;36.23;;;;;;;;;;5010763;28;20425;-84
2023/04/09 05:03:48;;;;;;;55.20;35.53;;;;;;;;;;5014325;28;20443;-84
2023/04/09 05:06:14;;;;;;;58.00;36.20;;;;;;;;;;5010285;28;20452;-84
2023/04/09 05:08:40;;;;;;;50.43;33.40;;;;;;;;;;5014321;28;20430;-84
2023/04/09 05:11:06;;;;;;;59.13;33.70;;;;;;;;;;4996623;28;20417;-84
2023/04/09 05:13:32;;;;;;;54.10;35.20;;;;;;;;;;5009127;28;20476;-83
2023/04/09 05:15:58;;;;;;;53.50;35.67;;;;;;;;;;4994753;28;20445;-83
2023/04/09 05:18:24;;;;;;;47.70;34.43;;;;;;;;;;4997154;28;20174;-84
2023/04/09 05:20:50;;;;;;;49.70;32.50;;;;;;;;;;5022601;28;20423;-84
2023/04/09 05:23:17;;;;;;;42.53;30.47;;;;;;;;;;4997470;28;20444;-84
2023/04/09 05:25:43;;;;;;;44.10;29.93;;;;;;;;;;5015652;28;20412;-83
2023/04/09 05:28:10;;;;;;;40.67;28.30;;;;;;;;;;5001456;28;20480;-85
2023/04/09 05:30:36;;;;;;;45.93;30.77;;;;;;;;;;4996557;28;20432;-84
2023/04/09 05:33:09;;;;;;;39.27;28.67;;;;;;;;;;5013354;28;20467;-84
2023/04/09 05:35:40;;;;;;;41.87;27.90;;;;;;;;;;5015035;28;20436;-85
2023/04/09 05:38:06;;;;;;;40.67;29.00;;;;;;;;;;4996229;28;20428;-84
2023/04/09 05:40:32;;;;;;;39.50;28.47;;;;;;;;;;5013873;28;20429;-84
2023/04/09 05:42:58;;;;;;;36.83;28.20;;;;;;;;;;4996077;28;20442;-83
2023/04/09 05:45:24;;;;;;;39.40;29.00;;;;;;;;;;4996455;28;20456;-84
2023/04/09 05:47:53;;;;;;;38.08;29.27;;;;;;;;;;4994939;28;20449;-84
2023/04/09 05:50:20;;;;;;;40.97;27.50;;;;;;;;;;4999689;28;20182;-85
2023/04/09 05:52:46;;;;;;;36.27;25.73;;;;;;;;;;5016953;28;20460;-85
2023/04/09 05:55:12;;;;;;;37.03;27.87;;;;;;;;;;5001185;28;20428;-84
2023/04/09 05:57:38;;;;;;;32.90;23.40;;;;;;;;;;5020969;28;20496;-84
2023/04/09 06:00:04;;;;;;;31.47;23.40;;;;;;;;;;4993922;28;20977;-85
2023/04/09 06:02:30;;;;;;;34.00;23.53;;;;;;;;;;5001591;28;20466;-84
2023/04/09 06:04:56;;;;;;;35.10;24.33;;;;;;;;;;5011923;28;20436;-85
2023/04/09 06:07:22;;;;;;;28.60;21.83;;;;;;;;;;5019745;28;20433;-84
2023/04/09 06:09:49;;;;;;;25.50;21.00;;;;;;;;;;5009550;28;20437;-84
2023/04/09 06:12:26;;;;;;;33.97;24.13;;;;;;;;;;5002090;28;20476;-84
2023/04/09 06:14:52;;;;;;;30.10;24.40;;;;;;;;;;5015877;28;20443;-84
2023/04/09 06:17:17;;;;;;;29.87;22.43;;;;;;;;;;5014486;28;20459;-85
2023/04/09 06:19:43;;;;;;;30.20;21.73;;;;;;;;;;4997657;28;20437;-84
2023/04/09 06:22:10;;;;;;;27.60;22.23;;;;;;;;;;5018798;28;20432;-84
2023/04/09 06:24:36;;;;;;;26.57;20.90;;;;;;;;;;4998586;28;20445;-84
2023/04/09 06:27:02;;;;;;;21.80;19.57;;;;;;;;;;5013753;28;20435;-85
2023/04/09 06:29:28;;;;;;;28.43;19.97;;;;;;;;;;5000215;28;20437;-85
2023/04/09 06:31:54;;;;;;;23.43;20.20;;;;;;;;;;5018660;28;20470;-85
2023/04/09 06:34:20;;;;;;;22.87;19.73;;;;;;;;;;5005626;28;20420;-85
2023/04/09 06:36:46;;;;;;;23.17;20.67;;;;;;;;;;5000963;28;20897;-84
2023/04/09 06:39:12;;;;;;;23.97;20.53;;;;;;;;;;4988503;28;20445;-86
2023/04/09 06:41:38;;;;;;;23.33;20.83;;;;;;;;;;4996404;28;20463;-84
2023/04/09 06:44:04;;;;;;;21.10;18.90;;;;;;;;;;4983869;28;20441;-85
2023/04/09 06:46:30;;;;;;;22.17;18.90;;;;;;;;;;4984845;28;20950;-86
2023/04/09 06:48:56;;;;;;;20.40;18.30;;;;;;;;;;4985772;28;21161;-85
2023/04/09 06:51:22;;;;;;;21.20;19.17;;;;;;;;;;5010584;28;20420;-85
2023/04/09 06:53:48;;;;;;;23.17;18.73;;;;;;;;;;4973828;28;20861;-86
2023/04/09 06:56:17;;;;;;;21.23;19.07;;;;;;;;;;4983513;28;20993;-86
2023/04/09 06:58:43;;;;;;;22.37;20.07;;;;;;;;;;4993085;28;20447;-85
2023/04/09 07:01:09;;;;;;;20.63;18.70;;;;;;;;;;4986317;28;20476;-85
2023/04/09 07:03:35;;;;;;;19.27;17.43;;;;;;;;;;4985330;28;20794;-85
2023/04/09 07:06:01;;;;;;;20.90;18.83;;;;;;;;;;4971538;28;20463;-85
2023/04/09 07:08:27;;;;;;;21.10;19.00;;;;;;;;;;4996736;28;20535;-85
2023/04/09 07:10:53;;;;;;;20.87;18.47;;;;;;;;;;4999478;28;20458;-86
2023/04/09 07:13:20;;;;;;;19.27;17.40;;;;;;;;;;4995987;28;20475;-83
2023/04/09 07:15:46;;;;;;;19.50;17.87;;;;;;;;;;4997495;28;20432;-85
2023/04/09 07:18:12;;;;;;;20.40;18.40;;;;;;;;;;4996228;28;20451;-82
2023/04/09 07:20:38;;;;;;;21.90;19.60;;;;;;;;;;4976483;28;20528;-84
2023/04/09 07:23:04;;;;;;;19.83;17.97;;;;;;;;;;4971199;28;20448;-85
2023/04/09 07:25:31;;;;;;;21.63;19.73;;;;;;;;;;4986330;28;20445;-84
2023/04/09 07:48:38;;;;;;;21.50;19.50;;;;;;;;;;3249402;23;21072;-85
2023/04/09 07:51:05;;;;;;;21.50;19.43;;;;;;;;;;5000035;28;20530;-84
2023/04/09 07:53:31;;;;;;;21.33;19.20;;;;;;;;;;5014008;28;20625;-82
2023/04/09 07:55:57;;;;;;;19.47;17.87;;;;;;;;;;5013647;28;20437;-84
2023/04/09 07:58:23;;;;;;;18.50;17.00;;;;;;;;;;5028145;28;20455;-84
2023/04/09 08:00:49;;;;;;;19.90;18.20;;;;;;;;;;5019217;28;20415;-83
2023/04/09 08:03:16;;;;;;;19.40;17.50;;;;;;;;;;4990780;28;20483;-84
2023/04/09 08:05:42;;;;;;;18.73;17.13;;;;;;;;;;5005844;28;20463;-84
2023/04/09 08:08:08;;;;;;;19.40;17.90;;;;;;;;;;5022264;28;20442;-81
2023/04/09 08:10:34;;;;;;;19.63;18.03;;;;;;;;;;5016895;28;20728;-83
2023/04/09 08:13:00;;;;;;;18.80;17.20;;;;;;;;;;5000247;28;20447;-83
2023/04/09 08:15:26;;;;;;;14.03;12.73;;;;;;;;;;4990196;28;20393;-83
2023/04/09 08:17:52;;;;;;;14.13;13.00;;;;;;;;;;4993126;28;20455;-84
2023/04/09 08:20:18;;;;;;;16.20;14.60;;;;;;;;;;4997853;28;20416;-82
2023/04/09 08:22:44;;;;;;;11.67;10.67;;;;;;;;;;4990002;28;20503;-82
2023/04/09 08:25:10;;;;;;;10.73;9.87;;;;;;;;;;4998227;28;20766;-83
2023/04/09 08:27:36;;;;;;;9.20;8.47;;;;;;;;;;4995045;28;20609;-83
2023/04/09 08:30:03;;;;;;;6.93;6.43;;;;;;;;;;4999859;28;21014;-83
2023/04/09 08:32:29;;;;;;;9.30;8.70;;;;;;;;;;5012764;28;20506;-82
2023/04/09 08:34:55;;;;;;;8.90;8.20;;;;;;;;;;4994635;28;20514;-82
2023/04/09 08:37:21;;;;;;;8.83;8.23;;;;;;;;;;4998642;28;20440;-81
2023/04/09 08:39:47;;;;;;;9.33;8.63;;;;;;;;;;4978075;28;20424;-84
2023/04/09 08:42:14;;;;;;;8.50;7.90;;;;;;;;;;5012466;28;20459;-83
2023/04/09 08:44:41;;;;;;;9.17;8.37;;;;;;;;;;4979245;28;20444;-82
2023/04/09 08:47:10;;;;;;;8.67;8.10;;;;;;;;;;4986188;28;20445;-82
2023/04/09 08:49:39;;;;;;;8.20;7.70;;;;;;;;;;4966689;28;20453;-83
2023/04/09 08:52:05;;;;;;;7.67;7.17;;;;;;;;;;4989924;28;20926;-82
2023/04/09 08:54:32;;;;;;;7.90;7.40;;;;;;;;;;4973869;28;20612;-82
2023/04/09 08:56:58;;;;;;;7.50;7.10;;;;;;;;;;4982204;28;20440;-82
2023/04/09 08:59:25;;;;;;;7.20;6.80;;;;;;;;;;4977800;28;20432;-81
2023/04/09 09:02:06;;;;;;;7.10;6.53;;;;;;;;;;4993534;28;20465;-81
2023/04/09 09:04:45;;;;;;;7.07;6.57;;;;;;;;;;4961076;28;20480;-83
2023/04/09 09:07:11;;;;;;;7.47;6.97;;;;;;;;;;4980126;28;20465;-83
2023/04/09 09:09:55;;;;;;;6.77;6.37;;;;;;;;;;4951928;28;20800;-81
2023/04/09 09:12:40;;;;;;;7.40;7.00;;;;;;;;;;4976228;28;20501;-81
2023/04/09 09:15:27;;;;;;;7.90;7.30;;;;;;;;;;4977923;28;20424;-84
2023/04/09 09:17:57;;;;;;;7.47;6.87;;;;;;;;;;4975765;28;20446;-85
2023/04/09 09:20:23;;;;;;;7.33;6.87;;;;;;;;;;4978002;28;20835;-83
2023/04/09 09:22:50;;;;;;;6.90;6.50;;;;;;;;;;4952186;28;20559;-85
2023/04/09 09:25:17;;;;;;;7.47;7.00;;;;;;;;;;4975571;28;20873;-83
2023/04/09 09:27:43;;;;;;;6.30;6.10;;;;;;;;;;4979492;28;20428;-81
2023/04/09 09:30:20;;;;;;;6.70;6.40;;;;;;;;;;4967244;28;20408;-81
2023/04/09 09:32:47;;;;;;;6.13;5.83;;;;;;;;;;4990326;28;20173;-82
2023/04/09 09:35:16;;;;;;;6.20;6.00;;;;;;;;;;4970010;28;20443;-82
2023/04/09 09:37:42;;;;;;;5.77;5.57;;;;;;;;;;4976504;28;20428;-81
2023/04/09 09:40:09;;;;;;;4.77;4.67;;;;;;;;;;4978194;28;20436;-84
2023/04/09 09:42:35;;;;;;;5.10;4.90;;;;;;;;;;4989548;28;20495;-80
2023/04/09 09:45:01;;;;;;;5.53;5.23;;;;;;;;;;4974010;28;20779;-86
2023/04/09 09:47:29;;;;;;;4.87;4.67;;;;;;;;;;4969619;28;20478;-83
2023/04/09 09:49:55;;;;;;;4.77;4.53;;;;;;;;;;4976194;28;20482;-83
2023/04/09 09:52:30;;;;;;;5.33;5.13;;;;;;;;;;4995360;28;20801;-83
2023/04/09 09:54:58;;;;;;;5.43;5.23;;;;;;;;;;4953966;28;20476;-84
2023/04/09 09:57:25;;;;;;;6.23;5.93;;;;;;;;;;4980334;28;20964;-83
2023/04/09 09:59:53;;;;;;;5.30;5.10;;;;;;;;;;4987410;28;20432;-84
2023/04/09 10:02:20;;;;;;;6.03;5.63;;;;;;;;;;4974379;28;20475;-82
2023/04/09 10:04:48;;;;;;;5.50;5.23;;;;;;;;;;4973909;28;20444;-82
2023/04/09 10:07:15;;;;;;;6.03;5.63;;;;;;;;;;4979905;28;20847;-83
2023/04/09 10:09:45;;;;;;;5.90;5.60;;;;;;;;;;4976570;28;20852;-83
2023/04/09 10:12:11;;;;;;;5.43;5.23;;;;;;;;;;4993001;28;20591;-83
2023/04/09 10:14:39;;;;;;;6.07;5.87;;;;;;;;;;4967318;28;20433;-81
2023/04/09 10:17:05;;;;;;;6.60;6.30;;;;;;;;;;4965311;28;20806;-84
2023/04/09 10:19:35;;;;;;;6.70;6.30;;;;;;;;;;4977004;28;20428;-83
2023/04/09 10:22:10;;;;;;;6.57;6.23;;;;;;;;;;4983178;28;20479;-83
2023/04/09 10:24:36;;;;;;;7.00;6.60;;;;;;;;;;4998403;28;20455;-81
2023/04/09 10:27:12;;;;;;;5.67;5.47;;;;;;;;;;4992003;28;20440;-82
2023/04/09 10:29:48;;;;;;;5.90;5.70;;;;;;;;;;4975116;28;20432;-83
2023/04/09 10:32:22;;;;;;;7.20;6.87;;;;;;;;;;4990736;28;20435;-84
2023/04/09 10:34:49;;;;;;;6.37;6.07;;;;;;;;;;4959362;28;20732;-83
2023/04/09 10:37:16;;;;;;;6.80;6.40;;;;;;;;;;4984956;28;20429;-83
2023/04/09 10:39:46;;;;;;;6.93;6.53;;;;;;;;;;4983051;28;20429;-84
2023/04/09 10:42:20;;;;;;;6.40;6.10;;;24.70;47.90;;;;;;4982458;28;20464;-83
2023/04/09 10:44:46;;;;;;;6.93;6.63;;;25.30;50.40;;;;;;4979579;28;20519;-82
2023/04/09 10:47:29;;;;;;;6.07;5.77;;;25.40;48.90;;;;;;4978685;28;20457;-81
2023/04/09 10:49:55;;;;;;;7.00;6.60;;;25.00;49.50;;;;;;4979925;28;20221;-82
2023/04/09 10:52:29;;;;;;;6.50;6.20;;;24.10;48.60;;;;;;4970079;28;20448;-82
2023/04/09 10:54:54;;;;;;;6.50;6.17;;;23.50;49.30;;;;;;5006094;28;20177;-83
2023/04/09 10:57:21;;;;;;;6.20;5.90;;;23.80;48.60;;;;;;4975361;28;20808;-83
2023/04/09 10:59:52;;;;;;;6.80;6.50;;;24.30;48.80;;;;;;4982994;28;20190;-83
2023/04/09 11:02:39;;;;;;;7.00;6.60;;;24.80;48.40;;;;;;4995590;28;20471;-84
2023/04/09 11:05:12;;;;;;;7.13;6.63;;;26.00;48.60;;;;;;4980619;28;20429;-82
2023/04/09 11:07:44;;;;;;;7.33;6.80;;;25.10;50.20;;;;;;4977294;28;20519;-81
2023/04/09 11:10:11;;;;;;;7.80;7.40;;;23.70;45.80;;;;;;4984753;28;20468;-82
2023/04/09 11:12:37;;;;;;;6.70;6.30;;;;;;;;;;4998987;28;20699;-82
2023/04/09 11:15:03;;;;;;;7.13;6.63;;;;;;;;;;4994120;28;20433;-82
2023/04/09 11:17:29;;;;;;;7.90;7.37;;;;;;;;;;4987863;28;20824;-84
2023/04/09 11:19:55;;;;;;;8.20;6.60;;;;;;;;;;4979954;28;20428;-82
2023/04/09 11:22:21;;;;;;;7.23;6.73;;;;;;;;;;4992554;28;20576;-82
2023/04/09 11:24:49;;;;;;;8.50;7.93;;;;;;;;;;4988969;28;20452;-81
2023/04/09 11:27:18;;;;;;;7.43;6.83;;;;;;;;;;4992561;28;20452;-83
2023/04/09 11:29:44;;;;;;;7.50;7.00;;;;;;;;;;4978971;28;20545;-83
2023/04/09 11:32:12;;;;;;;7.43;7.00;;;;;;;;;;4996257;28;20445;-83
2023/04/09 11:34:38;;;;;;;7.50;7.10;;;;;;;;;;4974151;28;20469;-82
2023/04/09 11:37:08;;;;;;;7.63;7.13;;;;;;;;;;4982732;28;20447;-82
2023/04/09 11:39:37;;;;;;;8.90;8.23;;;;;;;;;;4976103;28;20671;-83
2023/04/09 11:42:03;;;;;;;7.50;7.00;;;;;;;;;;4988755;28;20475;-83
2023/04/09 11:44:29;;;;;;;6.73;6.23;;;;;;;;;;4972036;28;20449;-83
2023/04/09 11:46:59;;;;;;;6.97;6.47;;;;;;;;;;4987561;28;20543;-85
2023/04/09 11:49:25;;;;;;;7.13;6.73;;;;;;;;;;4982208;28;20456;-83
2023/04/09 11:51:52;;;;;;;7.90;7.37;;;;;;;;;;4988506;28;20431;-84
2023/04/09 11:54:21;;;;;;;8.80;8.10;;;;;;;;;;4983657;28;20439;-84
2023/04/09 11:56:54;;;;;;;9.60;8.90;;;;;;;;;;4983676;28;20749;-84
2023/04/09 11:59:21;;;;;;;8.60;7.80;;;;;;;;;;4983946;28;20452;-82
2023/04/09 12:01:51;;;;;;;7.70;7.13;;;;;;;;;;4989093;28;20496;-82
2023/04/09 12:04:20;;;;;;;8.40;7.80;;;;;;;;;;4981794;28;20558;-83
2023/04/09 12:06:47;;;;;;;8.10;7.40;;;;;;;;;;4982098;28;20443;-82
2023/04/09 12:09:13;;;;;;;8.40;7.70;;;;;;;;;;4991225;28;20451;-83
2023/04/09 12:11:40;;;;;;;9.67;8.60;;;;;;;;;;4981233;28;20431;-84
2023/04/09 12:14:13;;;;;;;7.47;6.97;;;;;;;;;;4990628;28;20434;-83
2023/04/09 12:16:43;;;;;;;8.47;7.77;;;;;;;;;;4982097;28;20433;-82
2023/04/09 12:19:10;;;;;;;7.80;7.27;;;;;;;;;;4983332;28;20461;-84
2023/04/09 12:21:49;;;;;;;7.70;7.20;;;;;;;;;;4998304;28;21036;-83
2023/04/09 12:24:16;;;;;;;7.43;6.93;;;;;;;;;;4988922;28;20782;-83
2023/04/09 12:26:42;;;;;;;7.50;6.83;;;;;;;;;;4980486;28;20477;-84
2023/04/09 12:29:08;;;;;;;7.83;7.33;;;;;;;;;;4979623;28;20425;-85
2023/04/09 12:31:35;;;;;;;7.73;7.23;;;;;;;;;;5007580;28;20961;-86
2023/04/09 12:34:01;;;;;;;7.30;6.80;;;;;;;;;;5001574;28;20441;-86
2023/04/09 12:36:27;;;;;;;7.60;7.00;;;;;;;;;;5001824;28;20432;-86
2023/04/09 12:38:53;;;;;;;6.93;6.53;;;;;;;;;;4996523;28;20430;-84
2023/04/09 12:41:19;;;;;;;7.07;6.57;;;;;;;;;;4986936;28;20471;-84
2023/04/09 12:43:46;;;;;;;7.57;7.07;;;;;;;;;;4972723;28;20586;-78
2023/04/09 12:46:12;;;;;;;6.90;6.50;;;;;;;;;;4992632;28;20460;-85
2023/04/09 12:48:38;;;;;;;7.07;6.67;;;;;;;;;;4980894;28;20507;-82
2023/04/09 12:51:05;;;;;;;8.73;7.93;;;;;;;;;;4973951;28;20432;-84
2023/04/09 12:53:31;;;;;;;9.07;8.47;;;;;;;;;;4993071;28;20436;-85
2023/04/09 12:55:57;;;;;;;7.10;6.60;;;;;;;;;;4987861;28;20432;-85
2023/04/09 12:58:23;;;;;;;6.53;6.13;;;;;;;;;;4989273;28;20911;-84
2023/04/09 13:00:49;;;;;;;7.63;6.93;;;;;;;;;;4962911;28;20453;-85
2023/04/09 13:03:15;;;;;;;8.73;7.83;;;;;;;;;;4980593;28;20567;-84
2023/04/09 13:05:42;;;;;;;7.60;7.00;;;;;;;;;;4972014;28;20453;-83
2023/04/09 13:08:08;;;;;;;10.13;9.20;;;;;;;;;;4978622;28;20433;-80
2023/04/09 13:10:35;;;;;;;7.20;6.70;;;;;;;;;;4982879;28;20467;-82
2023/04/09 13:13:01;;;;;;;7.47;7.07;;;;;;;;;;4990290;28;20435;-82
2023/04/09 13:15:27;;;;;;;8.43;7.70;;;;;;;;;;4966400;28;20459;-79
2023/04/09 13:17:53;;;;;;;8.60;7.90;;;;;;;;;;4981454;28;20437;-79
2023/04/09 13:20:19;;;;;;;7.70;7.20;;;;;;;;;;4973829;28;20461;-80
2023/04/09 13:22:47;;;;;;;7.03;6.53;;;;;;;;;;4978460;28;20571;-80
2023/04/09 13:25:14;;;;;;;7.40;6.80;;;;;;;;;;4981072;28;20451;-77
2023/04/09 13:27:40;;;;;;;8.93;8.20;;;;;;;;;;4978377;28;20608;-79
2023/04/09 13:30:06;;;;;;;9.67;8.77;;;;;;;;;;4966915;28;20489;-80
2023/04/09 13:32:32;;;;;;;7.03;6.70;;;;;;;;;;4990561;28;21105;-82
2023/04/09 13:34:59;;;;;;;8.17;7.53;;;;;;;;;;4981211;28;20444;-82
2023/04/09 13:37:25;;;;;;;7.67;7.20;;;;;;;;;;4960874;28;20524;-82
2023/04/09 13:39:51;;;;;;;7.30;6.80;;;;;;;;;;4954217;28;20512;-81
2023/04/09 13:42:17;;;;;;;7.00;6.50;;;;;;;;;;4994626;28;20463;-79
2023/04/09 13:44:44;;;;;;;6.80;6.30;;;;;;;;;;4979780;28;20475;-79
2023/04/09 13:47:13;;;;;;;7.87;7.27;;;;;;;;;;4982857;28;21295;-81
2023/04/09 13:49:39;;;;;;;7.80;7.20;;;;;;;;;;4978609;28;20631;-80
2023/04/09 13:52:05;;;;;;;8.33;7.70;;;;;;;;;;4978971;28;20460;-80
2023/04/09 13:54:32;;;;;;;8.13;7.43;;;;;;;;;;4973879;28;20444;-81
2023/04/09 13:56:58;;;;;;;8.50;7.80;;;;;;;;;;4979734;28;20457;-80
2023/04/09 13:59:24;;;;;;;7.73;7.23;;;19.40;57.40;;;;;;4949672;28;20653;-79
2023/04/09 14:01:50;;;;;;;6.50;6.00;;;;;;;;;;4987010;28;20945;-80
2023/04/09 14:04:19;;;;;;;7.43;7.00;;;;;;;;;;4973290;28;20194;-80
2023/04/09 14:06:45;;;;;;;7.43;7.00;;;;;;;;;;4978373;28;20425;-80
2023/04/09 14:09:11;;;;;;;8.00;7.60;;;;;;;;;;4972580;28;21027;-80
2023/04/09 14:11:38;;;;;;;6.70;6.30;;;;;;;;;;4957430;28;20476;-79
2023/04/09 14:14:04;;;;;;;6.80;6.37;;;;;;;;;;4986878;28;20473;-78
2023/04/09 14:16:30;;;;;;;6.67;6.27;;;;;;;;;;4974135;28;20424;-81
2023/04/09 14:18:56;;;;;;;7.00;6.50;;;;;;;;;;4976383;28;20519;-79
2023/04/09 14:21:23;;;;;;;7.83;7.33;;;;;;;;;;4984649;28;20428;-78
2023/04/09 14:23:49;;;;;;;6.30;6.00;;;;;;;;;;4979655;28;20459;-80
2023/04/09 14:26:16;;;;;;;6.90;6.50;;;;;;;;;;4990827;28;20458;-79
2023/04/09 14:28:43;;;;;;;7.40;6.90;;;;;;;;;;4985060;28;20488;-80
2023/04/09 14:31:09;;;;;;;6.97;6.47;;;;;;;;;;4981571;28;20443;-79
2023/04/09 14:33:35;;;;;;;5.60;5.40;;;;;;;;;;4977692;28;20432;-81
2023/04/09 14:36:01;;;;;;;7.13;6.60;;;;;;;;;;4985861;28;20475;-79
2023/04/09 14:38:27;;;;;;;6.20;5.90;;;;;;;;;;4979017;28;20479;-78
2023/04/09 14:40:53;;;;;;;5.27;4.87;;;;;;;;;;4986155;28;20408;-77
2023/04/09 14:43:19;;;;;;;5.33;5.13;;;;;;;;;;4974241;28;20472;-79
2023/04/09 14:45:45;;;;;;;5.87;5.57;;;;;;;;;;4992055;28;20431;-81